createdAt,value
2023-02-15T00:16:56.280Z,-1.30
2023-02-15T01:45:00.543Z,-1.80
2023-02-15T01:47:37.308Z,-1.70
2023-02-15T01:57:50.470Z,-1.70
2023-02-15T02:00:22.697Z,-1.70
2023-02-15T02:03:19.703Z,-1.70
2023-02-15T02:16:02.444Z,-1.90
2023-02-15T02:18:45.788Z,-2.00
2023-02-15T02:21:57.202Z,-1.90
2023-02-15T02:24:57.161Z,-1.90
2023-02-15T02:27:40.396Z,-1.90
2023-02-15T02:30:49.378Z,-1.90
2023-02-15T02:33:42.220Z,-1.90
2023-02-15T02:36:22.360Z,-2.00
2023-02-15T02:39:06.263Z,-1.90
2023-02-15T02:49:35.587Z,-2.00
2023-02-15T02:57:12.430Z,-2.00
2023-02-15T02:59:48.592Z,-2.00
2023-02-15T03:05:04.325Z,-2.10
2023-02-15T03:07:35.346Z,-2.10
2023-02-15T03:10:09.253Z,-2.10
2023-02-15T03:12:43.033Z,-2.10
2023-02-15T03:15:16.702Z,-2.10
2023-02-15T03:17:50.138Z,-2.20
2023-02-15T03:20:27.965Z,-2.20
2023-02-15T03:23:02.894Z,-2.20
2023-02-15T03:25:37.442Z,-2.10
2023-02-15T03:28:12.830Z,-2.10
2023-02-15T03:30:46.238Z,-2.10
2023-02-15T03:33:18.064Z,-2.10
2023-02-15T03:36:00.606Z,-2.20
2023-02-15T03:38:37.719Z,-2.10
2023-02-15T03:43:52.336Z,-2.10
2023-02-15T03:46:29.015Z,-2.10
2023-02-15T03:49:02.738Z,-2.10
2023-02-15T03:51:37.223Z,-2.10
2023-02-15T04:02:04.113Z,-2.20
2023-02-15T04:04:38.538Z,-2.10
2023-02-15T04:17:40.276Z,-2.50
2023-02-15T04:20:24.541Z,-2.10
2023-02-15T04:25:39.843Z,-2.20
2023-02-15T05:58:57.670Z,-2.60
2023-02-15T09:15:25.900Z,-1.60
2023-02-15T09:25:30.352Z,-1.50
2023-02-15T09:30:33.385Z,-1.20
2023-02-15T09:33:03.454Z,-1.80
2023-02-15T09:35:33.739Z,-1.40
2023-02-15T09:40:41.940Z,-1.10
2023-02-15T09:43:32.120Z,-1.00
2023-02-15T09:46:23.432Z,-0.90
2023-02-15T09:48:58.878Z,-1.00
2023-02-15T09:51:54.865Z,-1.00
2023-02-15T09:54:49.781Z,-0.90
2023-02-15T09:57:26.491Z,-1.00
2023-02-15T10:00:06.081Z,-0.90
2023-02-15T10:03:13.229Z,-0.70
2023-02-15T10:05:54.658Z,-0.60
2023-02-15T10:08:42.981Z,-0.60
2023-02-15T10:11:32.052Z,-0.60
2023-02-15T10:14:16.367Z,-0.50
2023-02-15T10:16:55.087Z,-0.50
2023-02-15T10:19:36.353Z,-0.30
2023-02-15T10:22:19.669Z,0.10
2023-02-15T10:25:25.209Z,-0.20
2023-02-15T10:27:55.201Z,0.60
2023-02-15T10:30:34.916Z,-0.30
2023-02-15T10:33:07.931Z,0.00
2023-02-15T10:35:51.465Z,0.20
2023-02-15T10:38:31.307Z,0.30
2023-02-15T10:41:14.227Z,0.00
2023-02-15T10:44:05.198Z,0.40
2023-02-15T10:47:00.032Z,0.90
2023-02-15T10:50:08.800Z,0.90
2023-02-15T10:52:52.517Z,1.00
2023-02-15T10:55:32.742Z,1.30
2023-02-15T11:00:45.771Z,1.30
2023-02-15T11:08:42.894Z,2.50
2023-02-15T11:16:21.055Z,3.40
2023-02-15T11:18:56.978Z,3.90
2023-02-15T11:21:30.379Z,4.10
2023-02-15T11:24:03.971Z,4.40
2023-02-15T11:26:38.757Z,4.40
2023-02-15T11:29:16.908Z,4.60
2023-02-15T11:31:49.871Z,5.00
2023-02-15T11:39:32.849Z,5.70
2023-02-15T11:44:38.718Z,5.90
2023-02-15T11:47:14.024Z,6.40
2023-02-15T11:49:44.849Z,6.50
2023-02-15T11:54:52.451Z,6.50
2023-02-15T11:57:30.009Z,6.30
2023-02-15T12:07:49.067Z,6.10
2023-02-15T12:10:27.402Z,6.10
2023-02-15T12:13:14.698Z,5.80
2023-02-15T12:15:47.788Z,5.60
2023-02-15T12:18:35.073Z,6.00
2023-02-15T12:21:09.065Z,6.90
2023-02-15T12:26:17.223Z,7.00
2023-02-15T12:33:57.955Z,7.10
2023-02-15T12:36:31.623Z,7.20
2023-02-15T12:39:20.861Z,7.40
2023-02-15T12:42:06.006Z,7.40
2023-02-15T12:44:38.276Z,7.70
2023-02-15T12:47:10.160Z,7.80
2023-02-15T12:49:47.650Z,7.90
2023-02-15T12:57:35.957Z,8.30
2023-02-15T13:00:10.463Z,7.90
2023-02-15T13:02:47.193Z,8.20
2023-02-15T13:05:24.611Z,8.20
2023-02-15T13:07:58.419Z,8.40
2023-02-15T13:10:31.217Z,8.40
2023-02-15T13:25:51.738Z,8.10
2023-02-15T13:30:57.942Z,8.40
2023-02-15T13:38:52.922Z,8.90
2023-02-15T13:49:22.592Z,8.50
2023-02-15T13:52:02.436Z,8.10
2023-02-15T13:57:51.528Z,8.30
2023-02-15T14:00:29.069Z,8.20
2023-02-15T14:03:32.791Z,8.20
2023-02-15T14:06:29.748Z,8.30
2023-02-15T14:09:15.083Z,7.80
2023-02-15T14:11:54.335Z,8.10
2023-02-15T14:14:54.057Z,8.10
2023-02-15T14:17:38.750Z,8.10
2023-02-15T14:20:12.397Z,8.00
2023-02-15T14:22:46.702Z,8.00
2023-02-15T14:27:57.317Z,7.50
2023-02-15T14:30:32.814Z,7.20
2023-02-15T14:33:10.934Z,7.60
2023-02-15T14:38:23.015Z,7.00
2023-02-15T14:41:02.929Z,6.80
2023-02-15T14:43:49.946Z,6.80
2023-02-15T14:46:29.988Z,6.80
2023-02-15T14:49:10.155Z,6.70
2023-02-15T14:51:59.989Z,6.10
2023-02-15T14:55:09.278Z,6.20
2023-02-15T15:00:43.619Z,6.30
2023-02-15T15:03:25.107Z,6.30
2023-02-15T15:06:02.772Z,5.70
2023-02-15T15:08:38.610Z,5.90
2023-02-15T15:11:43.972Z,5.90
2023-02-15T15:14:30.231Z,5.70
2023-02-15T15:20:08.402Z,5.70
2023-02-15T15:22:41.208Z,5.50
2023-02-15T15:25:44.721Z,5.50
2023-02-15T15:40:04.097Z,4.90
2023-02-15T15:50:38.055Z,4.30
2023-02-15T15:55:42.525Z,4.10
2023-02-15T16:00:48.207Z,4.10
2023-02-15T16:03:19.776Z,4.00
2023-02-15T16:05:53.901Z,4.00
2023-02-15T16:11:04.140Z,3.70
2023-02-15T16:24:01.373Z,3.30
2023-02-15T16:26:55.550Z,3.30
2023-02-15T16:29:32.579Z,3.10
2023-02-15T16:32:07.173Z,3.00
2023-02-15T16:42:22.421Z,2.50
2023-02-15T16:44:54.920Z,2.40
2023-02-15T16:50:00.914Z,2.30
2023-02-15T16:52:32.361Z,2.30
2023-02-15T17:08:10.428Z,1.80
2023-02-15T17:18:22.106Z,1.50
2023-02-15T17:20:54.991Z,1.40
2023-02-15T17:23:33.663Z,1.30
2023-02-15T17:31:11.439Z,1.10
2023-02-15T17:33:42.106Z,1.00
2023-02-15T17:41:35.220Z,0.80
2023-02-15T17:44:10.369Z,0.70
2023-02-15T17:46:41.208Z,0.70
2023-02-15T18:10:32.995Z,0.10
2023-02-15T18:23:09.161Z,-0.10
2023-02-15T18:28:10.443Z,0.00
2023-02-15T18:30:45.163Z,-0.40
2023-02-15T18:33:33.037Z,-0.50
2023-02-15T18:36:04.209Z,-0.60
2023-02-15T18:41:06.083Z,-0.80
2023-02-15T18:46:09.602Z,-0.90
2023-02-15T18:48:39.691Z,-0.90
2023-02-15T19:03:55.152Z,-1.00
2023-02-15T19:26:46.153Z,-1.10
2023-02-15T19:44:28.832Z,-1.10
2023-02-15T19:49:32.401Z,-1.10
2023-02-15T20:02:13.705Z,-1.30
2023-02-15T20:04:43.980Z,-1.30
2023-02-15T20:50:26.300Z,-1.30
2023-02-15T20:52:58.150Z,-1.30
2023-02-15T21:00:31.892Z,-1.20
2023-02-15T21:08:15.285Z,-1.20
2023-02-15T21:15:53.535Z,-1.30
2023-02-15T21:21:00.182Z,-1.30
2023-02-15T21:23:32.631Z,-1.40
2023-02-15T21:26:02.868Z,-1.90
2023-02-15T21:28:33.589Z,-1.40
2023-02-15T21:33:37.096Z,-1.50
2023-02-15T21:38:37.821Z,-1.50
2023-02-15T21:41:20.318Z,-1.50
2023-02-15T21:44:02.767Z,-1.40
2023-02-15T21:49:18.178Z,-1.50
2023-02-15T21:54:31.496Z,-1.80
2023-02-15T22:02:02.265Z,-1.60
2023-02-15T22:04:35.692Z,-1.50
2023-02-15T22:07:05.659Z,-1.50
2023-02-15T22:09:35.632Z,-1.40
2023-02-15T22:12:05.598Z,-1.60
2023-02-15T22:14:40.429Z,-1.50
2023-02-15T22:17:18.136Z,-1.90
2023-02-15T22:19:52.262Z,-1.70
2023-02-15T22:24:52.909Z,-1.70
2023-02-15T22:27:25.717Z,-1.60
2023-02-15T22:32:28.282Z,-1.70
2023-02-15T22:35:00.849Z,-1.50
2023-02-15T22:40:01.478Z,-1.80
2023-02-15T22:42:31.662Z,-1.70
2023-02-15T22:45:01.950Z,-1.70
2023-02-15T22:47:34.578Z,-1.70
2023-02-15T22:50:16.932Z,-1.70
2023-02-15T22:52:46.913Z,-1.80
2023-02-15T22:55:18.586Z,-1.70
2023-02-15T22:57:51.795Z,-1.80
2023-02-15T23:00:23.996Z,-1.90
2023-02-15T23:02:54.098Z,-1.90
2023-02-15T23:05:28.733Z,-1.80
2023-02-15T23:07:59.576Z,-1.90
2023-02-15T23:13:14.032Z,-1.80
2023-02-15T23:15:45.132Z,-1.20
2023-02-15T23:18:20.680Z,-1.80
2023-02-15T23:20:56.678Z,-2.10
2023-02-15T23:23:34.291Z,-1.90
2023-02-15T23:26:04.923Z,-2.00
2023-02-15T23:28:38.282Z,-1.90
2023-02-15T23:31:20.485Z,-0.80
2023-02-15T23:33:51.172Z,-1.50
2023-02-15T23:36:31.771Z,-1.90
2023-02-15T23:39:25.191Z,-2.00
2023-02-15T23:41:52.598Z,-1.90
2023-02-15T23:44:22.734Z,-1.60
2023-02-15T23:46:53.657Z,-2.00
2023-02-15T23:49:23.686Z,-1.90
2023-02-15T23:51:58.783Z,-2.10
2023-02-15T23:54:29.452Z,-1.90
2023-02-15T23:57:03.576Z,-2.00
2023-02-15T23:59:35.012Z,-2.10
